createdAt,value
2018-06-02T00:01:38.001Z,54.40
2018-06-02T00:04:05.519Z,51.43
2018-06-02T00:06:33.058Z,53.60
2018-06-02T00:09:00.579Z,53.50
2018-06-02T00:11:28.891Z,50.30
2018-06-02T00:13:56.444Z,57.83
2018-06-02T00:16:23.990Z,53.80
2018-06-02T00:18:51.511Z,53.37
2018-06-02T00:21:19.051Z,59.90
2018-06-02T00:23:46.573Z,59.60
2018-06-02T00:26:14.882Z,61.70
2018-06-02T00:28:42.399Z,55.03
2018-06-02T00:31:09.942Z,65.33
2018-06-02T00:33:37.482Z,55.13
2018-06-02T00:36:05.055Z,59.60
2018-06-02T00:38:32.575Z,55.03
2018-06-02T00:41:00.139Z,62.47
2018-06-02T00:43:27.654Z,58.10
2018-06-02T00:45:55.203Z,66.77
2018-06-02T00:48:22.719Z,56.43
2018-06-02T00:50:51.030Z,58.70
2018-06-02T00:53:18.546Z,63.73
2018-06-02T00:55:46.826Z,64.77
2018-06-02T00:58:15.390Z,54.23
2018-06-02T01:00:42.926Z,54.00
2018-06-02T01:03:10.466Z,58.87
2018-06-02T01:05:37.995Z,59.13
2018-06-02T01:08:06.338Z,55.83
2018-06-02T01:10:33.859Z,53.77
2018-06-02T01:13:03.328Z,56.27
2018-06-02T01:15:30.859Z,60.53
2018-06-02T01:17:58.429Z,54.10
2018-06-02T01:20:25.952Z,51.20
2018-06-02T01:22:53.510Z,59.27
2018-06-02T01:25:21.039Z,59.33
2018-06-02T01:27:48.593Z,55.83
2018-06-02T01:30:16.318Z,53.00
2018-06-02T01:32:43.875Z,55.23
2018-06-02T01:35:11.401Z,55.43
2018-06-02T01:37:39.713Z,67.83
2018-06-02T01:40:07.354Z,60.60
2018-06-02T01:42:34.908Z,68.33
2018-06-02T01:45:02.431Z,62.43
2018-06-02T01:47:29.986Z,61.77
2018-06-02T01:49:57.506Z,56.10
2018-06-02T01:52:25.073Z,56.97
2018-06-02T01:54:52.603Z,54.03
2018-06-02T01:57:20.152Z,60.53
2018-06-02T01:59:47.713Z,66.40
2018-06-02T02:02:15.258Z,60.53
2018-06-02T02:04:43.713Z,60.20
2018-06-02T02:07:11.263Z,52.10
2018-06-02T02:09:38.795Z,67.67
2018-06-02T02:12:06.350Z,56.20
2018-06-02T02:14:33.891Z,52.73
2018-06-02T02:17:01.440Z,62.27
2018-06-02T02:19:28.958Z,55.33
2018-06-02T02:21:56.478Z,60.50
2018-06-02T02:24:24.791Z,64.63
2018-06-02T02:26:52.309Z,56.60
2018-06-02T02:29:19.857Z,56.07
2018-06-02T02:31:47.379Z,63.97
2018-06-02T02:34:14.949Z,63.63
2018-06-02T02:36:42.531Z,65.83
2018-06-02T02:39:10.239Z,59.70
2018-06-02T02:41:37.759Z,57.33
2018-06-02T02:44:06.083Z,64.30
2018-06-02T02:46:33.631Z,61.30
2018-06-02T02:49:01.179Z,57.97
2018-06-02T02:51:28.800Z,55.20
2018-06-02T02:53:56.359Z,77.00
2018-06-02T02:56:23.897Z,55.33
2018-06-02T02:58:51.532Z,57.17
2018-06-02T03:01:19.051Z,56.83
2018-06-02T03:03:46.752Z,53.57
2018-06-02T03:06:14.279Z,58.97
2018-06-02T03:08:41.870Z,60.43
2018-06-02T03:11:10.160Z,55.30
2018-06-02T03:13:37.702Z,55.30
2018-06-02T03:16:05.492Z,69.13
2018-06-02T03:18:33.044Z,59.63
2018-06-02T03:21:02.071Z,58.20
2018-06-02T03:23:29.616Z,57.47
2018-06-02T03:25:57.138Z,53.07
2018-06-02T03:28:25.461Z,62.50
2018-06-02T03:30:52.988Z,48.27
2018-06-02T03:33:20.534Z,50.83
2018-06-02T03:35:48.116Z,50.63
2018-06-02T03:38:15.651Z,55.40
2018-06-02T03:40:43.203Z,52.20
2018-06-02T03:43:11.499Z,57.47
2018-06-02T03:45:39.079Z,54.63
2018-06-02T03:48:06.603Z,55.80
2018-06-02T03:50:34.150Z,54.10
2018-06-02T03:53:01.671Z,57.05
2018-06-02T03:55:29.228Z,62.40
2018-06-02T03:57:56.777Z,50.50
2018-06-02T04:00:24.328Z,53.80
2018-06-02T04:02:51.890Z,49.73
2018-06-02T04:05:19.433Z,54.77
2018-06-02T04:07:46.958Z,57.10
2018-06-02T04:10:14.504Z,66.57
2018-06-02T04:12:42.042Z,52.43
2018-06-02T04:15:09.592Z,55.70
2018-06-02T04:17:37.119Z,53.73
2018-06-02T04:20:04.669Z,51.90
2018-06-02T04:22:32.218Z,58.40
2018-06-02T04:24:59.787Z,53.30
2018-06-02T04:27:27.306Z,53.90
2018-06-02T04:29:54.855Z,51.43
2018-06-02T04:32:22.386Z,52.03
2018-06-02T04:34:49.939Z,52.97
2018-06-02T04:37:18.230Z,54.63
2018-06-02T04:39:45.792Z,56.67
2018-06-02T04:42:13.419Z,58.57
2018-06-02T04:44:41.072Z,56.33
2018-06-02T04:47:08.591Z,55.07
2018-06-02T04:49:36.139Z,52.10
2018-06-02T04:52:03.659Z,54.00
2018-06-02T04:54:31.219Z,53.60
2018-06-02T04:56:58.746Z,52.70
2018-06-02T04:59:27.059Z,51.70
2018-06-02T05:01:54.582Z,63.03
2018-06-02T05:04:22.179Z,67.43
2018-06-02T05:06:49.693Z,55.50
2018-06-02T05:09:17.335Z,55.50
2018-06-02T05:11:44.869Z,52.73
2018-06-02T05:14:12.519Z,53.53
2018-06-02T05:16:40.035Z,59.70
2018-06-02T05:19:07.561Z,54.27
2018-06-02T05:21:35.879Z,56.67
2018-06-02T05:24:03.415Z,53.30
2018-06-02T05:26:30.961Z,63.37
2018-06-02T05:28:58.489Z,62.85
2018-06-02T05:31:26.033Z,60.23
2018-06-02T05:33:53.567Z,60.20
2018-06-02T05:36:21.114Z,57.63
2018-06-02T05:38:48.662Z,61.93
2018-06-02T05:41:16.226Z,58.23
2018-06-02T05:43:43.746Z,57.87
2018-06-02T05:46:11.291Z,56.83
2018-06-02T05:48:38.814Z,62.43
2018-06-02T05:51:07.128Z,59.23
2018-06-02T05:53:34.671Z,62.10
2018-06-02T05:56:02.227Z,58.37
2018-06-02T05:58:29.755Z,61.33
2018-06-02T06:00:57.403Z,57.87
2018-06-02T06:03:24.930Z,60.13
2018-06-02T06:05:52.483Z,58.40
2018-06-02T06:08:20.024Z,52.87
2018-06-02T06:10:47.566Z,55.10
2018-06-02T06:13:15.089Z,60.83
2018-06-02T06:15:42.639Z,59.27
2018-06-02T06:18:10.163Z,57.97
2018-06-02T06:20:38.483Z,59.70
2018-06-02T06:23:06.022Z,54.23
2018-06-02T06:25:33.575Z,56.73
2018-06-02T06:28:01.100Z,55.60
2018-06-02T06:30:28.656Z,58.20
2018-06-02T06:32:56.329Z,61.40
2018-06-02T06:35:23.994Z,53.27
2018-06-02T06:37:52.286Z,48.97
2018-06-02T06:40:19.811Z,58.00
2018-06-02T06:42:47.359Z,57.10
2018-06-02T06:45:14.887Z,55.60
2018-06-02T06:47:43.231Z,60.13
2018-06-02T06:50:10.755Z,50.50
2018-06-02T06:52:38.392Z,52.80
2018-06-02T06:55:05.932Z,64.23
2018-06-02T06:57:33.479Z,53.83
2018-06-02T07:00:00.998Z,51.50
2018-06-02T07:02:28.572Z,49.23
2018-06-02T07:04:56.095Z,48.40
2018-06-02T07:07:23.652Z,53.13
2018-06-02T07:09:52.018Z,50.27
2018-06-02T07:12:19.577Z,51.40
2018-06-02T07:14:47.103Z,52.47
2018-06-02T07:17:14.657Z,47.30
2018-06-02T07:19:42.209Z,51.87
2018-06-02T07:22:09.750Z,50.00
2018-06-02T07:24:37.270Z,59.10
2018-06-02T07:27:04.818Z,58.23
2018-06-02T07:29:32.378Z,54.13
2018-06-02T07:31:59.927Z,55.23
2018-06-02T07:34:27.502Z,51.03
2018-06-02T07:36:55.066Z,53.83
2018-06-02T07:39:23.370Z,58.00
2018-06-02T07:41:56.714Z,56.00
2018-06-02T07:44:24.391Z,51.90
2018-06-02T07:46:52.863Z,55.15
2018-06-02T07:49:20.396Z,61.07
2018-06-02T07:51:47.947Z,57.33
2018-06-02T07:54:15.481Z,58.23
2018-06-02T07:56:43.050Z,58.63
2018-06-02T07:59:10.590Z,66.43
2018-06-02T08:01:38.142Z,60.20
2018-06-02T08:04:05.735Z,65.60
2018-06-02T08:06:34.056Z,58.50
2018-06-02T08:09:01.641Z,60.63
2018-06-02T08:11:29.960Z,60.00
2018-06-02T08:13:57.489Z,53.37
2018-06-02T08:16:25.071Z,58.03
2018-06-02T08:18:53.717Z,54.33
2018-06-02T08:21:21.251Z,54.43
2018-06-02T08:23:48.910Z,55.87
2018-06-02T08:26:16.430Z,63.33
2018-06-02T08:28:43.991Z,52.70
2018-06-02T08:31:11.516Z,58.47
2018-06-02T08:33:39.112Z,48.03
2018-06-02T08:36:06.623Z,50.87
2018-06-02T08:38:34.171Z,57.60
2018-06-02T08:41:01.695Z,52.90
2018-06-02T08:43:29.315Z,48.23
2018-06-02T08:45:57.036Z,48.33
2018-06-02T08:48:24.659Z,61.83
2018-06-02T08:50:52.189Z,51.23
2018-06-02T08:53:19.810Z,49.60
2018-06-02T08:55:47.359Z,52.00
2018-06-02T08:58:14.903Z,49.17
2018-06-02T09:00:42.597Z,55.23
2018-06-02T09:03:10.147Z,47.23
2018-06-02T09:05:37.770Z,42.10
2018-06-02T09:08:05.335Z,39.80
2018-06-02T09:10:32.891Z,47.00
2018-06-02T09:13:01.045Z,45.50
2018-06-02T09:15:28.612Z,37.30
2018-06-02T09:17:56.206Z,41.03
2018-06-02T09:20:23.744Z,42.50
2018-06-02T09:22:51.972Z,38.70
2018-06-02T09:25:19.504Z,39.03
2018-06-02T09:27:47.250Z,39.67
2018-06-02T09:30:15.543Z,41.20
2018-06-02T09:32:43.103Z,38.47
2018-06-02T09:35:10.726Z,37.30
2018-06-02T09:37:38.248Z,39.10
2018-06-02T09:40:06.544Z,42.97
2018-06-02T09:42:34.082Z,45.33
2018-06-02T09:45:01.708Z,40.60
2018-06-02T09:47:30.143Z,42.63
2018-06-02T09:49:57.983Z,43.47
2018-06-02T09:52:25.583Z,40.90
2018-06-02T09:54:53.131Z,38.23
2018-06-02T09:57:20.695Z,38.47
2018-06-02T09:59:48.260Z,40.30
2018-06-02T10:02:15.806Z,39.80
2018-06-02T10:04:43.458Z,43.73
2018-06-02T10:07:11.209Z,38.73
2018-06-02T10:09:39.551Z,47.23
2018-06-02T10:12:07.200Z,44.13
2018-06-02T10:14:34.773Z,46.27
2018-06-02T10:17:02.401Z,50.80
2018-06-02T10:19:29.998Z,54.57
2018-06-02T10:21:57.526Z,59.63
2018-06-02T10:24:25.867Z,58.13
2018-06-02T10:26:55.823Z,56.00
2018-06-02T10:29:23.375Z,56.10
2018-06-02T10:31:50.929Z,59.40
2018-06-02T10:34:18.749Z,58.00
2018-06-02T10:36:46.282Z,56.53
2018-06-02T10:39:14.610Z,53.90
2018-06-02T10:41:42.149Z,53.30
2018-06-02T10:44:09.788Z,52.97
2018-06-02T10:46:37.397Z,50.00
2018-06-02T10:49:05.016Z,50.17
2018-06-02T10:51:33.339Z,54.10
2018-06-02T10:54:00.910Z,52.63
2018-06-02T10:56:28.427Z,60.30
2018-06-02T10:58:57.143Z,51.97
2018-06-02T11:01:24.846Z,55.80
2018-06-02T11:03:53.506Z,60.47
2018-06-02T11:06:21.299Z,51.27
2018-06-02T11:08:48.888Z,51.57
2018-06-02T11:11:16.566Z,49.43
2018-06-02T11:13:44.394Z,62.90
2018-06-02T11:16:11.939Z,57.20
2018-06-02T11:18:39.502Z,65.93
2018-06-02T11:21:07.035Z,62.45
2018-06-02T11:23:34.581Z,59.83
2018-06-02T11:26:02.789Z,56.93
2018-06-02T11:28:30.363Z,53.43
2018-06-02T11:30:57.979Z,51.80
2018-06-02T11:33:26.285Z,52.53
2018-06-02T11:35:54.708Z,44.60
2018-06-02T11:38:22.433Z,50.20
2018-06-02T11:40:50.162Z,55.10
2018-06-02T11:43:17.828Z,43.77
2018-06-02T11:45:46.223Z,41.70
2018-06-02T11:48:13.824Z,43.42
2018-06-02T11:50:41.487Z,47.43
2018-06-02T11:53:09.055Z,47.43
2018-06-02T11:55:36.797Z,47.00
2018-06-02T11:58:05.103Z,45.97
2018-06-02T12:00:34.818Z,46.28
2018-06-02T12:03:02.443Z,47.23
2018-06-02T12:05:30.038Z,53.67
2018-06-02T12:07:58.881Z,52.67
2018-06-02T12:10:26.835Z,58.13
2018-06-02T12:12:55.358Z,54.23
2018-06-02T12:15:23.905Z,52.33
2018-06-02T12:17:51.460Z,52.58
2018-06-02T12:20:19.296Z,51.57
2018-06-02T12:22:46.823Z,52.77
2018-06-02T12:25:14.942Z,52.47
2018-06-02T12:27:43.528Z,61.03
2018-06-02T12:30:11.214Z,53.77
2018-06-02T12:32:38.761Z,67.47
2018-06-02T12:35:06.326Z,62.80
2018-06-02T12:37:34.651Z,53.43
2018-06-02T12:40:02.206Z,60.83
2018-06-02T12:42:29.735Z,59.13
2018-06-02T12:44:57.283Z,62.77
2018-06-02T12:47:24.874Z,67.53
2018-06-02T12:49:52.426Z,68.20
2018-06-02T12:52:20.012Z,74.30
2018-06-02T12:54:48.174Z,64.23
2018-06-02T12:57:15.738Z,68.82
2018-06-02T12:59:43.269Z,69.87
2018-06-02T13:02:10.827Z,68.32
2018-06-02T13:04:38.498Z,69.50
2018-06-02T13:07:06.833Z,73.80
2018-06-02T13:09:34.420Z,76.23
2018-06-02T13:12:02.409Z,73.77
2018-06-02T13:14:29.936Z,75.10
2018-06-02T13:16:57.495Z,75.23
2018-06-02T13:19:25.150Z,72.43
2018-06-02T13:21:52.797Z,77.33
2018-06-02T13:24:20.479Z,66.83
2018-06-02T13:26:48.987Z,58.73
2018-06-02T13:29:16.633Z,55.03
2018-06-02T13:31:44.206Z,53.13
2018-06-02T13:34:11.739Z,67.23
2018-06-02T13:36:39.404Z,64.00
2018-06-02T13:39:06.953Z,65.90
2018-06-02T13:41:34.544Z,58.90
2018-06-02T13:44:02.071Z,48.17
2018-06-02T13:46:30.399Z,50.33
2018-06-02T13:48:58.060Z,49.93
2018-06-02T13:51:25.694Z,53.30
2018-06-02T13:53:53.488Z,45.00
2018-06-02T13:56:21.875Z,48.83
2018-06-02T13:58:50.241Z,50.92
2018-06-02T14:01:18.087Z,56.53
2018-06-02T14:03:45.683Z,52.97
2018-06-02T14:06:14.028Z,51.00
2018-06-02T14:08:41.777Z,46.83
2018-06-02T14:11:09.418Z,44.93
2018-06-02T14:13:36.978Z,42.20
2018-06-02T14:16:04.534Z,36.83
2018-06-02T14:18:32.516Z,36.07
2018-06-02T14:21:00.238Z,38.50
2018-06-02T14:23:28.848Z,38.23
2018-06-02T14:25:56.516Z,38.57
2018-06-02T14:28:24.195Z,37.80
2018-06-02T14:30:52.567Z,38.87
2018-06-02T14:33:20.919Z,51.07
2018-06-02T14:35:48.656Z,37.40
2018-06-02T14:38:17.417Z,39.60
2018-06-02T14:40:44.978Z,42.10
2018-06-02T14:43:12.570Z,46.30
2018-06-02T14:45:40.143Z,45.70
2018-06-02T14:48:07.780Z,44.40
2018-06-02T14:50:35.363Z,41.77
2018-06-02T14:53:02.956Z,46.00
2018-06-02T14:55:30.627Z,49.63
2018-06-02T14:57:58.303Z,43.20
2018-06-02T15:00:26.164Z,45.30
2018-06-02T15:02:54.178Z,47.07
2018-06-02T15:05:21.771Z,53.70
2018-06-02T15:07:50.082Z,56.57
2018-06-02T15:10:18.495Z,56.80
2018-06-02T15:12:46.832Z,50.33
2018-06-02T15:15:14.404Z,49.43
2018-06-02T15:17:47.600Z,60.53
2018-06-02T15:20:16.061Z,50.78
2018-06-02T15:22:43.648Z,53.33
2018-06-02T15:25:11.294Z,58.07
2018-06-02T15:27:38.928Z,52.67
2018-06-02T15:30:06.584Z,53.80
2018-06-02T15:32:35.207Z,52.23
2018-06-02T15:35:03.526Z,49.20
2018-06-02T15:37:31.100Z,49.33
2018-06-02T15:39:58.962Z,50.10
2018-06-02T15:42:27.341Z,48.77
2018-06-02T15:44:55.062Z,47.70
2018-06-02T15:47:23.553Z,51.73
2018-06-02T15:49:51.242Z,50.30
2018-06-02T15:52:19.726Z,52.27
2018-06-02T15:54:47.364Z,47.73
2018-06-02T15:57:14.932Z,52.40
2018-06-02T15:59:42.844Z,53.13
2018-06-02T16:02:10.433Z,69.50
2018-06-02T16:04:37.983Z,61.80
2018-06-02T16:07:05.539Z,52.88
2018-06-02T16:09:33.934Z,45.97
2018-06-02T16:12:01.967Z,48.10
2018-06-02T16:14:29.619Z,45.27
2018-06-02T16:16:57.944Z,46.03
2018-06-02T16:19:25.655Z,63.60
2018-06-02T16:21:55.463Z,40.57
2018-06-02T16:24:23.415Z,37.67
2018-06-02T16:26:54.153Z,210.77
2018-06-02T16:29:21.776Z,136.93
2018-06-02T16:31:49.345Z,236.53
2018-06-02T16:34:17.218Z,116.07
2018-06-02T16:36:44.792Z,245.07
2018-06-02T16:39:13.151Z,121.80
2018-06-02T16:41:40.683Z,136.27
2018-06-02T16:44:08.250Z,96.87
2018-06-02T16:46:37.651Z,63.87
2018-06-02T16:49:05.486Z,100.07
2018-06-02T16:51:33.828Z,51.77
2018-06-02T16:54:01.393Z,64.47
2018-06-02T16:56:29.927Z,62.23
2018-06-02T16:58:57.815Z,58.30
2018-06-02T17:01:27.179Z,56.42
2018-06-02T17:03:56.299Z,80.37
2018-06-02T17:06:24.089Z,62.13
2018-06-02T17:08:51.738Z,61.10
2018-06-02T17:11:19.494Z,67.13
2018-06-02T17:13:49.455Z,59.97
2018-06-02T17:16:17.037Z,72.67
2018-06-02T17:18:44.651Z,57.30
2018-06-02T17:21:12.229Z,62.70
2018-06-02T17:23:39.778Z,78.20
2018-06-02T17:26:07.406Z,59.77
2018-06-02T17:28:34.951Z,64.30
2018-06-02T17:31:02.635Z,69.00
2018-06-02T17:33:30.186Z,69.93
2018-06-02T17:35:58.482Z,65.00
2018-06-02T17:38:26.055Z,57.07
2018-06-02T17:40:53.713Z,57.10
2018-06-02T17:43:21.347Z,65.73
2018-06-02T17:45:48.899Z,69.40
2018-06-02T17:48:16.422Z,65.23
2018-06-02T17:50:44.068Z,79.37
2018-06-02T17:53:11.989Z,76.83
2018-06-02T17:55:40.304Z,64.87
2018-06-02T17:58:07.976Z,70.60
2018-06-02T18:00:35.682Z,76.83
2018-06-02T18:03:03.215Z,62.47
2018-06-02T18:05:30.794Z,52.50
2018-06-02T18:07:58.327Z,59.20
2018-06-02T18:10:25.886Z,54.60
2018-06-02T18:12:53.572Z,61.30
2018-06-02T18:15:21.148Z,59.03
2018-06-02T18:17:49.371Z,49.63
2018-06-02T18:20:17.693Z,56.53
2018-06-02T18:22:45.267Z,50.93
2018-06-02T18:25:12.883Z,58.77
2018-06-02T18:27:40.411Z,56.80
2018-06-02T18:30:07.953Z,57.10
2018-06-02T18:32:35.501Z,58.10
2018-06-02T18:35:03.032Z,79.67
2018-06-02T18:37:31.017Z,67.53
2018-06-02T18:39:58.669Z,56.27
2018-06-02T18:42:26.229Z,59.47
2018-06-02T18:44:53.752Z,56.60
2018-06-02T18:47:21.601Z,63.30
2018-06-02T18:49:49.143Z,67.43
2018-06-02T18:52:16.746Z,76.43
2018-06-02T18:54:44.530Z,65.47
2018-06-02T18:57:12.459Z,66.37
2018-06-02T18:59:40.043Z,75.50
2018-06-02T19:02:07.596Z,70.03
2018-06-02T19:04:35.242Z,59.07
2018-06-02T19:07:02.808Z,68.83
2018-06-02T19:09:30.428Z,74.40
2018-06-02T19:11:57.959Z,71.13
2018-06-02T19:14:25.633Z,76.60
2018-06-02T19:16:53.215Z,68.17
2018-06-02T19:19:20.767Z,62.33
2018-06-02T19:21:48.355Z,63.17
2018-06-02T19:24:15.918Z,53.73
2018-06-02T19:26:43.531Z,61.07
2018-06-02T19:29:11.080Z,60.77
2018-06-02T19:31:38.634Z,62.43
2018-06-02T19:34:07.131Z,62.57
2018-06-02T19:36:35.426Z,63.60
2018-06-02T19:39:04.549Z,57.30
2018-06-02T19:41:32.299Z,61.93
2018-06-02T19:43:59.900Z,60.83
2018-06-02T19:46:28.209Z,60.47
2018-06-02T19:48:55.786Z,56.57
2018-06-02T19:51:23.508Z,54.97
2018-06-02T19:53:51.034Z,62.17
2018-06-02T19:56:18.863Z,52.90
2018-06-02T19:58:46.533Z,53.77
2018-06-02T20:01:14.166Z,56.83
2018-06-02T20:03:41.772Z,55.03
2018-06-02T20:06:09.395Z,55.60
2018-06-02T20:08:36.978Z,66.10
2018-06-02T20:11:04.567Z,53.20
2018-06-02T20:13:32.930Z,52.37
2018-06-02T20:16:03.432Z,53.97
2018-06-02T20:18:31.176Z,54.27
2018-06-02T20:20:58.812Z,54.97
2018-06-02T20:23:26.362Z,61.60
2018-06-02T20:25:54.015Z,53.37
2018-06-02T20:28:22.290Z,64.00
2018-06-02T20:30:50.256Z,58.30
2018-06-02T20:33:18.686Z,62.00
2018-06-02T20:35:46.363Z,65.77
2018-06-02T20:38:13.915Z,64.70
2018-06-02T20:40:41.456Z,59.00
2018-06-02T20:43:09.080Z,59.37
2018-06-02T20:45:36.958Z,59.80
2018-06-02T20:48:05.453Z,54.00
2018-06-02T20:50:33.180Z,49.53
2018-06-02T20:53:02.063Z,52.97
2018-06-02T20:55:30.120Z,49.47
2018-06-02T20:57:57.791Z,60.53
2018-06-02T21:00:25.591Z,107.33
2018-06-02T21:02:53.461Z,377.60
2018-06-02T21:05:21.751Z,202.87
2018-06-02T21:07:52.343Z,53.13
2018-06-02T21:10:20.019Z,44.65
2018-06-02T21:12:47.617Z,51.90
2018-06-02T21:15:15.149Z,55.77
2018-06-02T21:17:42.877Z,49.20
2018-06-02T21:20:10.476Z,55.50
2018-06-02T21:22:38.423Z,48.80
2018-06-02T21:25:05.955Z,54.77
2018-06-02T21:27:33.593Z,50.50
2018-06-02T21:30:01.171Z,53.60
2018-06-02T21:32:29.519Z,54.33
2018-06-02T21:34:57.131Z,55.00
2018-06-02T21:37:24.735Z,51.17
2018-06-02T21:39:53.014Z,52.90
2018-06-02T21:42:20.599Z,57.80
2018-06-02T21:44:48.231Z,57.57
2018-06-02T21:47:15.779Z,65.03
2018-06-02T21:49:43.328Z,62.60
2018-06-02T21:52:10.884Z,61.83
2018-06-02T21:54:38.943Z,55.83
2018-06-02T21:57:06.498Z,56.33
2018-06-02T21:59:35.448Z,60.47
2018-06-02T22:02:03.048Z,58.77
2018-06-02T22:04:31.342Z,64.47
2018-06-02T22:06:58.911Z,65.13
2018-06-02T22:09:26.462Z,66.00
2018-06-02T22:11:54.114Z,62.80
2018-06-02T22:14:22.404Z,64.73
2018-06-02T22:16:49.959Z,66.43
2018-06-02T22:19:17.483Z,77.33
2018-06-02T22:21:45.829Z,75.87
2018-06-02T22:24:13.379Z,68.20
2018-06-02T22:26:41.094Z,70.80
2018-06-02T22:29:08.723Z,80.67
2018-06-02T22:31:36.291Z,86.53
2018-06-02T22:34:03.831Z,75.20
2018-06-02T22:36:31.354Z,76.33
2018-06-02T22:38:58.899Z,76.37
2018-06-02T22:41:26.464Z,83.20
2018-06-02T22:43:54.010Z,79.30
2018-06-02T22:46:23.085Z,73.57
2018-06-02T22:48:50.683Z,71.00
2018-06-02T22:51:28.582Z,76.37
2018-06-02T22:53:56.128Z,76.32
2018-06-02T22:56:23.687Z,73.80
2018-06-02T22:58:51.242Z,81.97
2018-06-02T23:01:18.773Z,77.27
2018-06-02T23:03:46.331Z,76.17
2018-06-02T23:06:13.847Z,77.50
2018-06-02T23:08:42.168Z,75.37
2018-06-02T23:11:09.699Z,79.80
2018-06-02T23:13:37.252Z,75.87
2018-06-02T23:16:04.785Z,95.90
2018-06-02T23:18:32.327Z,85.50
2018-06-02T23:20:59.850Z,78.93
2018-06-02T23:23:27.401Z,86.50
2018-06-02T23:25:54.967Z,86.50
2018-06-02T23:28:22.524Z,89.70
2018-06-02T23:30:50.081Z,100.20
2018-06-02T23:33:18.450Z,100.47
2018-06-02T23:35:46.738Z,102.20
2018-06-02T23:38:14.290Z,106.37
2018-06-02T23:40:41.815Z,103.17
2018-06-02T23:43:10.210Z,113.03
2018-06-02T23:45:37.824Z,113.33
2018-06-02T23:48:05.359Z,112.67
2018-06-02T23:50:33.685Z,111.50
2018-06-02T23:53:01.214Z,116.37
2018-06-02T23:55:28.768Z,108.90
2018-06-02T23:57:56.412Z,106.53
